createdAt,value
2019-03-17T00:00:50.835Z,9.40
2019-03-17T00:03:19.714Z,9.40
2019-03-17T00:05:48.764Z,9.40
2019-03-17T00:08:17.784Z,9.40
2019-03-17T00:10:46.661Z,9.40
2019-03-17T00:13:17.646Z,9.40
2019-03-17T00:15:46.041Z,9.40
2019-03-17T00:18:14.930Z,9.40
2019-03-17T00:20:43.738Z,9.40
2019-03-17T00:23:12.847Z,9.30
2019-03-17T00:25:41.974Z,9.40
2019-03-17T00:28:10.872Z,9.40
2019-03-17T00:30:39.766Z,9.40
2019-03-17T00:33:08.637Z,9.30
2019-03-17T00:35:37.948Z,9.30
2019-03-17T00:38:06.826Z,9.30
2019-03-17T00:40:35.924Z,9.30
2019-03-17T00:43:05.028Z,9.30
2019-03-17T00:45:33.796Z,9.20
2019-03-17T00:48:02.703Z,9.20
2019-03-17T00:50:31.770Z,9.10
2019-03-17T00:53:00.962Z,9.00
2019-03-17T00:55:29.873Z,9.00
2019-03-17T00:57:59.669Z,8.90
2019-03-17T01:00:29.524Z,8.80
2019-03-17T01:02:58.384Z,8.80
2019-03-17T01:05:27.471Z,8.70
2019-03-17T01:07:56.460Z,8.60
2019-03-17T01:10:25.549Z,8.60
2019-03-17T01:12:55.090Z,8.50
2019-03-17T01:15:24.213Z,8.40
2019-03-17T01:17:53.184Z,8.40
2019-03-17T01:20:22.060Z,8.40
2019-03-17T01:22:51.892Z,8.30
2019-03-17T01:25:20.687Z,8.20
2019-03-17T01:27:49.580Z,8.10
2019-03-17T01:30:18.365Z,8.10
2019-03-17T01:32:47.243Z,8.10
2019-03-17T01:35:16.276Z,8.10
2019-03-17T01:37:45.063Z,8.10
2019-03-17T01:40:14.107Z,8.00
2019-03-17T01:42:43.050Z,7.90
2019-03-17T01:45:12.024Z,7.90
2019-03-17T01:47:40.946Z,7.90
2019-03-17T01:50:10.486Z,7.80
2019-03-17T01:52:39.735Z,7.80
2019-03-17T01:55:08.986Z,7.80
2019-03-17T01:57:37.895Z,7.70
2019-03-17T02:00:07.407Z,7.80
2019-03-17T02:02:36.400Z,7.80
2019-03-17T02:05:05.790Z,7.80
2019-03-17T02:07:34.816Z,7.70
2019-03-17T02:10:04.168Z,7.70
2019-03-17T02:12:33.188Z,7.60
2019-03-17T02:15:02.103Z,7.60
2019-03-17T02:17:31.310Z,7.40
2019-03-17T02:20:00.343Z,7.30
2019-03-17T02:22:29.286Z,7.20
2019-03-17T02:24:58.084Z,7.20
2019-03-17T02:27:27.036Z,7.10
2019-03-17T02:29:55.835Z,7.10
2019-03-17T02:32:24.612Z,7.00
2019-03-17T02:34:53.601Z,7.00
2019-03-17T02:37:22.559Z,7.00
2019-03-17T02:39:51.476Z,6.90
2019-03-17T02:42:20.554Z,6.90
2019-03-17T02:44:49.480Z,6.90
2019-03-17T02:47:18.437Z,7.00
2019-03-17T02:49:47.632Z,7.00
2019-03-17T02:52:16.709Z,7.00
2019-03-17T02:54:45.511Z,7.00
2019-03-17T02:57:14.304Z,7.00
2019-03-17T02:59:43.376Z,7.00
2019-03-17T03:02:31.432Z,6.90
2019-03-17T03:05:00.517Z,6.90
2019-03-17T03:07:29.428Z,6.90
2019-03-17T03:09:58.183Z,6.70
2019-03-17T03:12:26.960Z,6.70
2019-03-17T03:14:55.765Z,6.70
2019-03-17T03:17:24.602Z,6.60
2019-03-17T03:19:53.412Z,6.70
2019-03-17T03:22:22.448Z,6.70
2019-03-17T03:24:51.215Z,6.70
2019-03-17T03:27:20.043Z,6.60
2019-03-17T03:29:48.772Z,6.60
2019-03-17T03:32:17.824Z,6.60
2019-03-17T03:34:46.871Z,6.60
2019-03-17T03:37:15.663Z,6.70
2019-03-17T03:39:44.424Z,6.80
2019-03-17T03:42:13.543Z,6.80
2019-03-17T03:44:42.640Z,6.90
2019-03-17T03:47:11.400Z,6.90
2019-03-17T03:49:40.420Z,7.00
2019-03-17T03:52:09.475Z,7.10
2019-03-17T03:54:38.304Z,7.10
2019-03-17T03:57:07.103Z,7.00
2019-03-17T03:59:36.355Z,7.00
2019-03-17T04:02:05.213Z,7.00
2019-03-17T04:04:34.322Z,7.00
2019-03-17T04:07:03.089Z,7.10
2019-03-17T04:09:32.163Z,7.10
2019-03-17T04:12:01.418Z,7.20
2019-03-17T04:14:30.534Z,7.20
2019-03-17T04:16:59.524Z,7.20
2019-03-17T04:19:28.300Z,7.30
2019-03-17T04:21:57.193Z,7.20
2019-03-17T04:24:26.041Z,7.30
2019-03-17T04:26:54.877Z,7.40
2019-03-17T04:29:23.702Z,7.40
2019-03-17T04:31:52.585Z,7.30
2019-03-17T04:34:21.333Z,7.30
2019-03-17T04:36:50.078Z,7.20
2019-03-17T04:39:18.951Z,7.20
2019-03-17T04:41:47.768Z,7.10
2019-03-17T04:44:21.118Z,7.00
2019-03-17T04:46:47.501Z,6.90
2019-03-17T04:49:16.288Z,6.70
2019-03-17T04:51:45.101Z,6.60
2019-03-17T04:54:13.996Z,6.50
2019-03-17T04:56:42.839Z,6.40
2019-03-17T04:59:11.675Z,6.30
2019-03-17T05:01:40.688Z,6.20
2019-03-17T05:04:09.410Z,6.10
2019-03-17T05:06:38.155Z,5.90
2019-03-17T05:09:07.571Z,5.70
2019-03-17T05:11:36.340Z,5.60
2019-03-17T05:14:05.195Z,5.50
2019-03-17T05:16:35.817Z,5.60
2019-03-17T05:19:04.497Z,5.50
2019-03-17T05:21:33.795Z,5.50
2019-03-17T05:24:02.606Z,5.40
2019-03-17T05:26:31.464Z,5.30
2019-03-17T05:29:00.259Z,5.20
2019-03-17T05:31:29.048Z,5.10
2019-03-17T05:33:58.044Z,5.10
2019-03-17T05:36:26.800Z,5.10
2019-03-17T05:38:55.671Z,5.10
2019-03-17T05:41:25.959Z,5.10
2019-03-17T05:43:54.783Z,5.10
2019-03-17T05:46:23.571Z,5.00
2019-03-17T05:48:52.571Z,5.00
2019-03-17T05:51:21.307Z,5.10
2019-03-17T05:53:50.140Z,5.10
2019-03-17T05:56:19.009Z,5.10
2019-03-17T05:58:48.148Z,5.10
2019-03-17T06:01:17.208Z,5.20
2019-03-17T06:03:45.982Z,5.30
2019-03-17T06:06:15.027Z,5.30
2019-03-17T06:08:44.300Z,5.40
2019-03-17T06:11:13.305Z,5.50
2019-03-17T06:13:42.364Z,5.60
2019-03-17T06:16:11.111Z,5.80
2019-03-17T06:18:40.415Z,6.20
2019-03-17T06:21:09.243Z,6.40
2019-03-17T06:23:38.079Z,6.60
2019-03-17T06:26:07.139Z,6.80
2019-03-17T06:28:36.252Z,6.90
2019-03-17T06:31:05.543Z,7.10
2019-03-17T06:33:34.607Z,7.10
2019-03-17T06:36:03.459Z,7.20
2019-03-17T06:38:32.584Z,7.50
2019-03-17T06:41:04.175Z,7.60
2019-03-17T06:43:32.282Z,7.80
2019-03-17T06:46:01.159Z,8.10
2019-03-17T06:48:30.104Z,8.80
2019-03-17T06:50:59.205Z,9.60
2019-03-17T06:53:28.032Z,10.30
2019-03-17T06:55:56.899Z,11.20
2019-03-17T06:58:26.266Z,11.90
2019-03-17T07:00:55.080Z,12.80
2019-03-17T07:03:23.934Z,13.30
2019-03-17T07:05:52.755Z,14.10
2019-03-17T07:08:21.584Z,14.60
2019-03-17T07:10:50.660Z,15.40
2019-03-17T07:13:19.528Z,15.60
2019-03-17T07:15:48.332Z,15.80
2019-03-17T07:18:17.358Z,16.20
2019-03-17T07:20:46.406Z,16.00
2019-03-17T07:23:15.174Z,16.40
2019-03-17T07:25:43.981Z,16.00
2019-03-17T07:28:13.024Z,16.70
2019-03-17T07:30:41.881Z,16.70
2019-03-17T07:33:10.674Z,17.30
2019-03-17T07:35:39.715Z,17.20
2019-03-17T07:38:08.583Z,17.20
2019-03-17T07:40:37.868Z,16.80
2019-03-17T07:43:06.710Z,16.40
2019-03-17T07:45:35.498Z,16.50
2019-03-17T07:48:04.551Z,15.70
2019-03-17T07:50:33.270Z,15.30
2019-03-17T07:53:02.383Z,15.20
2019-03-17T07:55:31.214Z,15.00
2019-03-17T07:58:00.047Z,14.40
2019-03-17T08:00:32.162Z,13.80
2019-03-17T08:02:59.300Z,13.50
2019-03-17T08:05:28.315Z,13.30
2019-03-17T08:08:08.887Z,13.20
2019-03-17T08:10:27.628Z,13.20
2019-03-17T08:12:56.745Z,13.30
2019-03-17T08:15:25.665Z,13.20
2019-03-17T08:17:54.626Z,13.30
2019-03-17T08:20:23.411Z,13.40
2019-03-17T08:22:52.198Z,13.50
2019-03-17T08:25:21.316Z,13.70
2019-03-17T08:27:50.228Z,13.90
2019-03-17T08:30:19.150Z,14.30
2019-03-17T08:32:48.061Z,15.50
2019-03-17T08:35:16.832Z,16.50
2019-03-17T08:37:45.687Z,17.30
2019-03-17T08:40:14.524Z,18.20
2019-03-17T08:42:43.253Z,18.90
2019-03-17T08:45:12.090Z,19.40
2019-03-17T08:47:40.935Z,19.50
2019-03-17T08:50:09.972Z,19.10
2019-03-17T08:52:39.187Z,19.60
2019-03-17T08:55:08.167Z,20.00
2019-03-17T08:57:37.219Z,19.60
2019-03-17T09:00:07.205Z,19.60
2019-03-17T09:02:35.956Z,19.50
2019-03-17T09:05:05.079Z,19.70
2019-03-17T09:07:34.149Z,20.00
2019-03-17T09:10:03.288Z,20.20
2019-03-17T09:12:32.311Z,20.20
2019-03-17T09:15:01.041Z,20.40
2019-03-17T09:17:29.832Z,20.20
2019-03-17T09:19:58.842Z,19.80
2019-03-17T09:22:27.839Z,20.00
2019-03-17T09:24:57.005Z,20.00
2019-03-17T09:27:25.818Z,19.80
2019-03-17T09:29:54.899Z,19.70
2019-03-17T09:32:23.658Z,19.30
2019-03-17T09:34:52.415Z,20.10
2019-03-17T09:37:21.199Z,19.90
2019-03-17T09:39:49.945Z,19.50
2019-03-17T09:42:18.987Z,19.40
2019-03-17T09:44:47.968Z,19.20
2019-03-17T09:47:16.774Z,19.10
2019-03-17T09:49:45.724Z,19.50
2019-03-17T09:52:14.736Z,19.60
2019-03-17T09:54:43.723Z,19.30
2019-03-17T09:57:13.507Z,19.30
2019-03-17T09:59:42.530Z,19.50
2019-03-17T10:02:13.876Z,19.40
2019-03-17T10:04:42.891Z,19.60
2019-03-17T10:07:14.625Z,19.50
2019-03-17T10:09:43.469Z,19.20
2019-03-17T10:12:12.492Z,19.20
2019-03-17T10:14:41.512Z,19.30
2019-03-17T10:17:10.226Z,19.30
2019-03-17T10:19:39.035Z,19.70
2019-03-17T10:22:07.847Z,20.10
2019-03-17T10:24:36.647Z,20.10
2019-03-17T10:27:05.469Z,20.30
2019-03-17T10:29:34.562Z,20.30
2019-03-17T10:32:04.123Z,20.40
2019-03-17T10:34:33.184Z,20.60
2019-03-17T10:37:01.979Z,20.70
2019-03-17T10:39:31.024Z,20.80
2019-03-17T10:41:59.854Z,20.70
2019-03-17T10:44:28.930Z,20.40
2019-03-17T10:46:57.722Z,20.00
2019-03-17T10:49:26.624Z,20.10
2019-03-17T10:51:56.521Z,20.60
2019-03-17T10:54:28.387Z,20.80
2019-03-17T10:56:57.415Z,20.70
2019-03-17T10:59:29.551Z,20.70
2019-03-17T11:01:58.548Z,20.00
2019-03-17T11:04:27.394Z,20.00
2019-03-17T11:06:59.169Z,19.80
2019-03-17T11:09:29.147Z,19.70
2019-03-17T11:11:58.184Z,19.70
2019-03-17T11:14:27.311Z,19.60
2019-03-17T11:16:56.777Z,19.50
2019-03-17T11:19:27.005Z,19.70
2019-03-17T11:21:58.733Z,19.90
2019-03-17T11:24:31.050Z,19.90
2019-03-17T11:26:59.808Z,19.60
2019-03-17T11:29:28.574Z,19.40
2019-03-17T11:31:57.564Z,19.20
2019-03-17T11:34:26.480Z,19.40
2019-03-17T11:36:55.469Z,19.50
2019-03-17T11:39:36.823Z,19.70
2019-03-17T11:41:57.682Z,19.90
2019-03-17T11:44:26.919Z,19.80
2019-03-17T11:46:55.756Z,19.90
2019-03-17T11:49:24.495Z,19.60
2019-03-17T11:51:53.266Z,19.70
2019-03-17T11:54:22.138Z,19.50
2019-03-17T11:56:51.147Z,19.20
2019-03-17T11:59:20.201Z,19.60
2019-03-17T12:01:49.580Z,19.70
2019-03-17T12:04:18.342Z,20.00
2019-03-17T12:06:47.438Z,19.60
2019-03-17T12:09:28.217Z,19.50
2019-03-17T12:11:50.050Z,19.50
2019-03-17T12:14:19.092Z,19.70
2019-03-17T12:16:47.957Z,19.60
2019-03-17T12:19:16.786Z,19.50
2019-03-17T12:21:45.612Z,19.70
2019-03-17T12:24:14.399Z,19.30
2019-03-17T12:26:43.404Z,19.20
2019-03-17T12:29:12.842Z,19.50
2019-03-17T12:31:41.972Z,19.30
2019-03-17T12:34:10.735Z,19.20
2019-03-17T12:36:39.759Z,18.70
2019-03-17T12:39:08.503Z,18.60
2019-03-17T12:41:38.451Z,18.50
2019-03-17T12:44:07.252Z,18.50
2019-03-17T12:46:36.301Z,18.50
2019-03-17T12:49:05.383Z,18.20
2019-03-17T12:51:34.387Z,18.10
2019-03-17T12:54:03.503Z,18.30
2019-03-17T12:56:32.291Z,17.80
2019-03-17T12:59:01.133Z,17.60
2019-03-17T13:01:29.870Z,17.40
2019-03-17T13:03:58.608Z,17.30
2019-03-17T13:06:27.351Z,18.00
2019-03-17T13:08:56.368Z,18.40
2019-03-17T13:11:25.179Z,18.30
2019-03-17T13:13:54.173Z,18.10
2019-03-17T13:16:23.435Z,17.90
2019-03-17T13:18:52.273Z,18.00
2019-03-17T13:21:21.392Z,18.10
2019-03-17T13:23:50.176Z,18.30
2019-03-17T13:26:19.009Z,18.40
2019-03-17T13:28:47.857Z,18.20
2019-03-17T13:31:16.787Z,18.30
2019-03-17T13:33:45.618Z,18.90
2019-03-17T13:36:14.479Z,19.70
2019-03-17T13:38:43.347Z,20.00
2019-03-17T13:41:12.195Z,19.60
2019-03-17T13:43:41.175Z,19.70
2019-03-17T13:46:10.492Z,19.80
2019-03-17T13:48:39.278Z,19.80
2019-03-17T13:51:08.186Z,19.50
2019-03-17T13:53:36.989Z,19.30
2019-03-17T13:56:05.707Z,19.40
2019-03-17T13:58:34.733Z,18.70
2019-03-17T14:01:03.484Z,18.20
2019-03-17T14:03:32.356Z,18.40
2019-03-17T14:06:01.384Z,18.10
2019-03-17T14:08:30.420Z,17.70
2019-03-17T14:10:59.495Z,17.80
2019-03-17T14:13:28.271Z,18.20
2019-03-17T14:15:57.165Z,18.40
2019-03-17T14:18:25.950Z,18.10
2019-03-17T14:20:55.082Z,18.50
2019-03-17T14:23:24.156Z,18.50
2019-03-17T14:25:53.187Z,18.30
2019-03-17T14:28:22.034Z,18.10
2019-03-17T14:30:50.860Z,17.90
2019-03-17T14:33:20.431Z,17.90
2019-03-17T14:35:49.160Z,17.90
2019-03-17T14:38:17.925Z,17.70
2019-03-17T14:40:53.168Z,17.40
2019-03-17T14:43:17.530Z,17.20
2019-03-17T14:45:46.371Z,16.80
2019-03-17T14:48:15.161Z,16.70
2019-03-17T14:50:44.003Z,16.60
2019-03-17T14:53:12.883Z,16.60
2019-03-17T14:55:41.688Z,16.40
2019-03-17T14:58:10.597Z,16.30
2019-03-17T15:00:39.431Z,16.10
2019-03-17T15:03:08.298Z,16.00
2019-03-17T15:05:37.332Z,16.00
2019-03-17T15:08:06.252Z,15.40
2019-03-17T15:10:35.021Z,14.90
2019-03-17T15:13:04.000Z,14.70
2019-03-17T15:15:33.227Z,14.20
2019-03-17T15:18:01.970Z,13.70
2019-03-17T15:20:31.191Z,13.10
2019-03-17T15:22:59.958Z,12.50
2019-03-17T15:25:28.731Z,12.50
2019-03-17T15:27:57.519Z,12.30
2019-03-17T15:30:26.309Z,12.30
2019-03-17T15:32:55.057Z,12.20
2019-03-17T15:35:23.914Z,12.00
2019-03-17T15:37:52.807Z,11.60
2019-03-17T15:40:21.810Z,11.30
2019-03-17T15:42:51.086Z,11.10
2019-03-17T15:45:19.973Z,10.80
2019-03-17T15:47:48.790Z,10.30
2019-03-17T15:50:17.903Z,9.60
2019-03-17T15:52:46.968Z,9.20
2019-03-17T15:55:15.956Z,8.80
2019-03-17T15:57:44.754Z,8.80
2019-03-17T16:00:24.973Z,8.70
2019-03-17T16:02:46.698Z,8.30
2019-03-17T16:05:15.936Z,8.00
2019-03-17T16:07:44.908Z,7.80
2019-03-17T16:10:14.759Z,7.80
2019-03-17T16:12:43.530Z,7.80
2019-03-17T16:15:12.875Z,7.70
2019-03-17T16:17:41.683Z,7.60
2019-03-17T16:20:12.787Z,7.70
2019-03-17T16:22:41.767Z,7.40
2019-03-17T16:25:11.027Z,7.40
2019-03-17T16:27:40.043Z,7.50
2019-03-17T16:30:12.204Z,7.30
2019-03-17T16:32:41.242Z,7.20
2019-03-17T16:35:10.291Z,7.10
2019-03-17T16:37:39.028Z,7.00
2019-03-17T16:40:09.254Z,7.10
2019-03-17T16:42:38.015Z,7.20
2019-03-17T16:45:07.235Z,7.20
2019-03-17T16:47:36.441Z,7.20
2019-03-17T16:50:06.757Z,7.30
2019-03-17T16:52:35.914Z,7.30
2019-03-17T16:55:05.398Z,7.30
2019-03-17T16:57:34.436Z,7.20
2019-03-17T17:00:03.683Z,7.30
2019-03-17T17:02:32.450Z,7.10
2019-03-17T17:05:01.286Z,7.10
2019-03-17T17:07:30.395Z,7.20
2019-03-17T17:09:59.195Z,7.10
2019-03-17T17:12:28.280Z,7.10
2019-03-17T17:14:57.056Z,7.00
2019-03-17T17:17:26.048Z,7.00
2019-03-17T17:19:55.293Z,7.00
2019-03-17T17:22:24.444Z,6.90
2019-03-17T17:24:53.564Z,7.00
2019-03-17T17:27:22.339Z,7.00
2019-03-17T17:29:51.106Z,7.00
2019-03-17T17:32:20.091Z,7.00
2019-03-17T17:34:48.894Z,7.00
2019-03-17T17:37:17.865Z,7.00
2019-03-17T17:39:46.840Z,6.90
2019-03-17T17:42:15.579Z,6.90
2019-03-17T17:44:44.871Z,6.90
2019-03-17T17:47:13.911Z,6.80
2019-03-17T17:49:42.911Z,6.80
2019-03-17T17:52:11.782Z,6.90
2019-03-17T17:54:40.576Z,6.90
2019-03-17T17:57:09.319Z,6.90
2019-03-17T17:59:38.120Z,7.00
2019-03-17T18:02:06.961Z,7.00
2019-03-17T18:04:35.931Z,7.10
2019-03-17T18:07:05.072Z,7.10
2019-03-17T18:09:33.794Z,7.00
2019-03-17T18:12:02.531Z,7.10
2019-03-17T18:14:31.253Z,7.00
2019-03-17T18:17:00.057Z,7.00
2019-03-17T18:19:29.309Z,7.10
2019-03-17T18:21:58.095Z,7.00
2019-03-17T18:24:27.108Z,7.10
2019-03-17T18:26:55.893Z,7.10
2019-03-17T18:29:24.880Z,7.00
2019-03-17T18:31:53.905Z,7.00
2019-03-17T18:34:22.714Z,7.00
2019-03-17T18:36:52.002Z,7.00
2019-03-17T18:39:20.807Z,7.10
2019-03-17T18:41:49.569Z,7.00
2019-03-17T18:44:18.972Z,7.00
2019-03-17T18:46:47.959Z,7.00
2019-03-17T18:49:16.728Z,7.00
2019-03-17T18:51:45.528Z,7.00
2019-03-17T18:54:14.565Z,6.90
2019-03-17T18:56:43.380Z,6.90
2019-03-17T18:59:12.188Z,6.90
2019-03-17T19:01:40.915Z,6.90
2019-03-17T19:04:09.687Z,7.00
2019-03-17T19:06:38.754Z,7.00
2019-03-17T19:09:07.736Z,6.90
2019-03-17T19:11:36.658Z,7.00
2019-03-17T19:14:05.482Z,7.00
2019-03-17T19:16:34.227Z,7.00
2019-03-17T19:19:03.270Z,7.00
2019-03-17T19:21:32.050Z,6.90
2019-03-17T19:24:01.069Z,7.00
2019-03-17T19:26:29.873Z,7.00
2019-03-17T19:28:58.651Z,7.00
2019-03-17T19:31:27.730Z,6.90
2019-03-17T19:33:56.964Z,7.00
2019-03-17T19:36:26.017Z,7.00
2019-03-17T19:38:54.823Z,7.00
2019-03-17T19:41:23.784Z,6.90
2019-03-17T19:43:52.605Z,6.90
2019-03-17T19:46:21.410Z,6.90
2019-03-17T19:48:50.152Z,7.00
2019-03-17T19:51:19.193Z,7.00
2019-03-17T19:53:48.547Z,7.00
2019-03-17T19:56:17.328Z,7.00
2019-03-17T19:58:46.092Z,7.00
2019-03-17T20:01:14.963Z,7.10
2019-03-17T20:03:44.167Z,7.10
2019-03-17T20:06:12.925Z,7.10
2019-03-17T20:08:42.066Z,7.20
2019-03-17T20:11:10.933Z,7.10
2019-03-17T20:13:39.662Z,7.10
2019-03-17T20:16:08.428Z,7.00
2019-03-17T20:18:37.202Z,7.00
2019-03-17T20:21:05.980Z,7.10
2019-03-17T20:23:34.975Z,7.00
2019-03-17T20:26:03.820Z,7.00
2019-03-17T20:28:32.558Z,7.00
2019-03-17T20:31:01.339Z,7.00
2019-03-17T20:33:30.139Z,7.00
2019-03-17T20:35:58.871Z,7.00
2019-03-17T20:38:27.662Z,7.00
2019-03-17T20:40:56.431Z,7.00
2019-03-17T20:43:34.786Z,6.90
2019-03-17T20:45:55.638Z,6.90
2019-03-17T20:48:25.339Z,6.80
2019-03-17T20:50:54.263Z,6.80
2019-03-17T20:53:23.318Z,6.90
2019-03-17T20:55:52.420Z,7.00
2019-03-17T20:58:21.274Z,7.00
2019-03-17T21:03:32.484Z,6.90
2019-03-17T21:06:01.275Z,7.00
2019-03-17T21:08:30.270Z,6.90
2019-03-17T21:10:59.329Z,6.90
2019-03-17T21:13:28.244Z,7.00
2019-03-17T21:15:57.051Z,6.90
2019-03-17T21:18:25.800Z,6.90
2019-03-17T21:20:54.902Z,6.90
2019-03-17T21:23:23.779Z,6.90
2019-03-17T21:25:52.645Z,6.90
2019-03-17T21:28:21.528Z,6.90
2019-03-17T21:30:50.351Z,6.80
2019-03-17T21:33:19.172Z,6.80
2019-03-17T21:35:48.269Z,6.80
2019-03-17T21:38:17.366Z,6.80
2019-03-17T21:41:05.638Z,6.80
2019-03-17T21:43:16.981Z,6.80
2019-03-17T21:45:45.792Z,6.80
2019-03-17T21:48:14.902Z,6.80
2019-03-17T21:50:43.741Z,6.70
2019-03-17T21:53:12.664Z,6.70
2019-03-17T21:55:41.908Z,6.70
2019-03-17T21:58:10.816Z,6.80
2019-03-17T22:00:39.665Z,6.80
2019-03-17T22:03:08.499Z,6.80
2019-03-17T22:05:37.287Z,6.70
2019-03-17T22:08:06.003Z,6.70
2019-03-17T22:10:34.771Z,6.70
2019-03-17T22:13:03.624Z,6.70
2019-03-17T22:15:32.431Z,6.70
2019-03-17T22:18:01.184Z,6.60
2019-03-17T22:20:30.172Z,6.70
2019-03-17T22:22:59.223Z,6.70
2019-03-17T22:25:28.277Z,6.70
2019-03-17T22:28:07.850Z,6.70
2019-03-17T22:30:27.802Z,6.70
2019-03-17T22:32:56.737Z,6.70
2019-03-17T22:35:25.892Z,6.70
2019-03-17T22:37:54.906Z,6.70
2019-03-17T22:40:23.676Z,6.70
2019-03-17T22:42:52.707Z,6.70
2019-03-17T22:45:21.435Z,6.70
2019-03-17T22:47:50.171Z,6.70
2019-03-17T22:50:19.334Z,6.70
2019-03-17T22:52:48.209Z,6.60
2019-03-17T22:55:17.684Z,6.60
2019-03-17T22:57:46.683Z,6.60
2019-03-17T23:00:19.443Z,6.60
2019-03-17T23:02:48.186Z,6.50
2019-03-17T23:05:16.990Z,6.50
2019-03-17T23:07:45.739Z,6.50
2019-03-17T23:10:14.658Z,6.50
2019-03-17T23:12:43.521Z,6.50
2019-03-17T23:15:12.359Z,6.50
2019-03-17T23:17:41.171Z,6.50
2019-03-17T23:20:10.776Z,6.50
2019-03-17T23:22:39.738Z,6.50
2019-03-17T23:25:08.778Z,6.50
2019-03-17T23:27:37.553Z,6.50
2019-03-17T23:30:07.202Z,6.50
2019-03-17T23:32:36.016Z,6.50
2019-03-17T23:35:05.027Z,6.50
2019-03-17T23:37:34.386Z,6.50
2019-03-17T23:40:03.501Z,6.50
2019-03-17T23:42:32.344Z,6.60
2019-03-17T23:45:01.170Z,6.60
2019-03-17T23:47:29.918Z,6.60
2019-03-17T23:49:58.721Z,6.50
2019-03-17T23:52:27.500Z,6.50
2019-03-17T23:54:56.287Z,6.10
2019-03-17T23:57:25.039Z,5.70
2019-03-17T23:59:53.775Z,5.60
